QFA6T YMML-YSSY
Flight info
| Callsign | QFA6T |
|---|---|
| Flight time | 1h 1m |
| Altitude | 37000 |
| Route | DOSEL2/34 DOSEL Y59 RIVET |
| Aircraft | A20N/M-SDE2E3FGHIRWXY/LB1 |
Departure
| Time | 2026-05-04 11:22 |
|---|---|
| Airport | Melbourne Airport (YMML) |
Arrival
| Time | 2026-05-04 12:24 |
|---|---|
| Airport | Sydney Kingsford Smith International Airport (YSSY) |
| Time | Latitude | Longitude | Altitude | Speed | Heading |
|---|---|---|---|---|---|
| 2026-05-04 10:44 | -37.67132 | 144.84591 | 362 ft | 0 kts | 353° |
| 2026-05-04 11:08 | -37.67199 | 144.84627 | 361 ft | 1 kts | 262° |
| 2026-05-04 11:13 | -37.67199 | 144.84625 | 356 ft | 1 kts | 262° |
| 2026-05-04 11:13 | -37.67201 | 144.84609 | 339 ft | 4 kts | 262° |
| 2026-05-04 11:13 | -37.67206 | 144.84561 | 365 ft | 8 kts | 262° |
| 2026-05-04 11:14 | -37.67209 | 144.84537 | 362 ft | 9 kts | 262° |
| 2026-05-04 11:16 | -37.68407 | 144.84419 | 331 ft | 15 kts | 213° |
| 2026-05-04 11:16 | -37.68516 | 144.84324 | 331 ft | 22 kts | 220° |
| 2026-05-04 11:16 | -37.68546 | 144.84261 | 330 ft | 0 kts | 255° |
| 2026-05-04 11:19 | -37.68552 | 144.84201 | 333 ft | 6 kts | 275° |
| 2026-05-04 11:19 | -37.68541 | 144.84152 | 330 ft | 6 kts | 295° |
| 2026-05-04 11:19 | -37.68516 | 144.84110 | 335 ft | 6 kts | 316° |
| 2026-05-04 11:19 | -37.68475 | 144.84081 | 333 ft | 7 kts | 345° |
| 2026-05-04 11:20 | -37.68469 | 144.84079 | 335 ft | 8 kts | 346° |
| 2026-05-04 11:20 | -37.68167 | 144.84020 | 350 ft | 77 kts | 352° |
| 2026-05-04 11:20 | -37.67446 | 144.83886 | 372 ft | 129 kts | 352° |
| 2026-05-04 11:20 | -37.66465 | 144.83713 | 700 ft | 143 kts | 352° |
| 2026-05-04 11:22 | -37.58122 | 144.82830 | 4301 ft | 251 kts | 15° |
| 2026-05-04 11:22 | -37.56456 | 144.83804 | 4888 ft | 275 kts | 20° |
| 2026-05-04 11:23 | -37.54717 | 144.84894 | 5818 ft | 280 kts | 21° |
| 2026-05-04 11:23 | -37.52988 | 144.85983 | 6792 ft | 283 kts | 21° |
| 2026-05-04 11:24 | -37.42189 | 144.94187 | 11183 ft | 357 kts | 52° |
| 2026-05-04 11:25 | -37.40759 | 144.96782 | 11969 ft | 363 kts | 53° |
| 2026-05-04 11:25 | -37.39306 | 144.99392 | 12852 ft | 366 kts | 52° |
| 2026-05-04 11:25 | -37.37830 | 145.02019 | 13682 ft | 370 kts | 52° |
| 2026-05-04 11:26 | -37.34822 | 145.07343 | 15200 ft | 377 kts | 52° |
| 2026-05-04 11:27 | -37.23762 | 145.26822 | 20015 ft | 404 kts | 51° |
| 2026-05-04 11:28 | -37.22127 | 145.29694 | 20669 ft | 406 kts | 51° |
| 2026-05-04 11:28 | -37.20478 | 145.32588 | 21283 ft | 409 kts | 51° |
| 2026-05-04 11:28 | -37.18839 | 145.35459 | 21882 ft | 412 kts | 51° |
| 2026-05-04 11:28 | -37.17162 | 145.38396 | 22481 ft | 416 kts | 51° |
| 2026-05-04 11:29 | -37.15471 | 145.41354 | 23076 ft | 419 kts | 51° |
| 2026-05-04 11:29 | -37.13762 | 145.44336 | 23649 ft | 422 kts | 51° |
| 2026-05-04 11:29 | -37.12043 | 145.47335 | 23934 ft | 425 kts | 50° |
| 2026-05-04 11:29 | -37.10316 | 145.50344 | 24018 ft | 425 kts | 50° |
| 2026-05-04 11:31 | -36.98214 | 145.71364 | 25025 ft | 430 kts | 49° |
| 2026-05-04 11:33 | -36.85632 | 145.93096 | 28001 ft | 453 kts | 46° |
| 2026-05-04 11:33 | -36.83775 | 145.96289 | 28398 ft | 456 kts | 46° |
| 2026-05-04 11:33 | -36.81907 | 145.99498 | 28774 ft | 459 kts | 45° |
| 2026-05-04 11:34 | -36.80028 | 146.02726 | 29147 ft | 461 kts | 45° |
| 2026-05-04 11:34 | -36.78134 | 146.05972 | 29449 ft | 464 kts | 45° |
| 2026-05-04 11:34 | -36.76236 | 146.09227 | 29889 ft | 465 kts | 45° |
| 2026-05-04 11:34 | -36.74322 | 146.12501 | 30140 ft | 469 kts | 44° |
| 2026-05-04 11:35 | -36.72391 | 146.15800 | 30431 ft | 472 kts | 44° |
| 2026-05-04 11:35 | -36.70448 | 146.19116 | 30724 ft | 475 kts | 45° |
| 2026-05-04 11:35 | -36.68491 | 146.22454 | 30994 ft | 478 kts | 45° |
| 2026-05-04 11:35 | -36.66526 | 146.25804 | 31329 ft | 480 kts | 45° |
| 2026-05-04 11:36 | -36.64554 | 146.29164 | 31690 ft | 480 kts | 45° |
| 2026-05-04 11:36 | -36.62582 | 146.32520 | 32003 ft | 480 kts | 45° |
| 2026-05-04 11:36 | -36.60617 | 146.35863 | 32478 ft | 477 kts | 45° |
| 2026-05-04 11:36 | -36.58654 | 146.39196 | 32825 ft | 478 kts | 45° |
| 2026-05-04 11:37 | -36.56685 | 146.42532 | 33146 ft | 479 kts | 45° |
| 2026-05-04 11:37 | -36.54715 | 146.45866 | 33464 ft | 479 kts | 45° |
| 2026-05-04 11:37 | -36.52738 | 146.49208 | 33805 ft | 480 kts | 45° |
| 2026-05-04 11:37 | -36.50788 | 146.52502 | 34116 ft | 480 kts | 45° |
| 2026-05-04 11:38 | -36.48808 | 146.55844 | 34362 ft | 480 kts | 45° |
| 2026-05-04 11:38 | -36.46819 | 146.59196 | 34546 ft | 483 kts | 45° |
| 2026-05-04 11:38 | -36.44825 | 146.62554 | 34789 ft | 483 kts | 45° |
| 2026-05-04 11:38 | -36.42832 | 146.65911 | 35045 ft | 483 kts | 45° |
| 2026-05-04 11:39 | -36.40835 | 146.69269 | 35292 ft | 484 kts | 45° |
| 2026-05-04 11:39 | -36.38837 | 146.72627 | 35538 ft | 484 kts | 45° |
| 2026-05-04 11:40 | -36.27470 | 146.91665 | 36769 ft | 485 kts | 46° |
| 2026-05-04 11:41 | -36.25457 | 146.95025 | 36986 ft | 486 kts | 46° |
| 2026-05-04 11:41 | -36.21426 | 147.01746 | 37057 ft | 485 kts | 46° |
| 2026-05-04 11:42 | -36.17397 | 147.08455 | 37081 ft | 486 kts | 46° |
| 2026-05-04 11:42 | -36.13364 | 147.15154 | 37079 ft | 484 kts | 46° |
| 2026-05-04 11:43 | -36.09342 | 147.21819 | 37083 ft | 484 kts | 46° |
| 2026-05-04 11:43 | -36.05313 | 147.28484 | 37083 ft | 484 kts | 45° |
| 2026-05-04 11:44 | -36.01284 | 147.35137 | 37086 ft | 483 kts | 45° |
| 2026-05-04 11:44 | -35.97253 | 147.41781 | 37094 ft | 483 kts | 45° |
| 2026-05-04 11:45 | -35.93216 | 147.48423 | 37099 ft | 483 kts | 45° |
| 2026-05-04 11:45 | -35.89177 | 147.55057 | 37107 ft | 484 kts | 45° |
| 2026-05-04 11:46 | -35.85133 | 147.61683 | 37114 ft | 484 kts | 45° |
| 2026-05-04 11:46 | -35.81111 | 147.68259 | 37119 ft | 483 kts | 45° |
| 2026-05-04 11:47 | -35.77070 | 147.74855 | 37109 ft | 482 kts | 45° |
| 2026-05-04 11:47 | -35.73023 | 147.81445 | 37111 ft | 482 kts | 45° |
| 2026-05-04 11:48 | -35.68976 | 147.88025 | 37111 ft | 482 kts | 45° |
| 2026-05-04 11:48 | -35.64929 | 147.94594 | 37095 ft | 481 kts | 45° |
| 2026-05-04 11:49 | -35.60863 | 148.01176 | 37123 ft | 485 kts | 45° |
| 2026-05-04 11:49 | -35.56788 | 148.07767 | 37120 ft | 482 kts | 45° |
| 2026-05-04 11:50 | -35.52726 | 148.14323 | 37120 ft | 482 kts | 45° |
| 2026-05-04 11:50 | -35.48656 | 148.20878 | 37113 ft | 484 kts | 44° |
| 2026-05-04 11:51 | -35.44609 | 148.27385 | 37127 ft | 483 kts | 44° |
| 2026-05-04 11:51 | -35.40533 | 148.33923 | 37124 ft | 482 kts | 44° |
| 2026-05-04 11:52 | -35.36462 | 148.40443 | 37087 ft | 481 kts | 44° |
| 2026-05-04 11:52 | -35.32405 | 148.46933 | 37102 ft | 480 kts | 44° |
| 2026-05-04 11:53 | -35.28350 | 148.53404 | 37105 ft | 479 kts | 44° |
| 2026-05-04 11:53 | -35.24295 | 148.59862 | 37066 ft | 480 kts | 44° |
| 2026-05-04 11:53 | -35.22257 | 148.63102 | 36834 ft | 481 kts | 44° |
| 2026-05-04 11:55 | -35.08040 | 148.85639 | 35113 ft | 477 kts | 43° |
| 2026-05-04 11:55 | -35.06010 | 148.88842 | 34854 ft | 477 kts | 43° |
| 2026-05-04 11:56 | -35.03978 | 148.92045 | 34629 ft | 478 kts | 43° |
| 2026-05-04 11:56 | -35.01938 | 148.95261 | 34406 ft | 478 kts | 43° |
| 2026-05-04 11:56 | -34.99903 | 148.98467 | 34172 ft | 478 kts | 43° |
| 2026-05-04 11:56 | -34.97870 | 149.01666 | 33910 ft | 477 kts | 43° |
| 2026-05-04 11:57 | -34.95837 | 149.04862 | 33618 ft | 477 kts | 43° |
| 2026-05-04 11:57 | -34.93812 | 149.08042 | 33352 ft | 474 kts | 43° |
| 2026-05-04 11:57 | -34.91791 | 149.11214 | 33091 ft | 473 kts | 43° |
| 2026-05-04 11:57 | -34.89770 | 149.14380 | 32814 ft | 474 kts | 43° |
| 2026-05-04 11:58 | -34.87741 | 149.17554 | 32563 ft | 475 kts | 43° |
| 2026-05-04 11:58 | -34.85716 | 149.20722 | 32303 ft | 474 kts | 43° |
| 2026-05-04 11:58 | -34.83691 | 149.23889 | 32049 ft | 474 kts | 43° |
| 2026-05-04 11:58 | -34.81667 | 149.27051 | 31804 ft | 474 kts | 43° |
| 2026-05-04 11:59 | -34.79641 | 149.30212 | 31557 ft | 473 kts | 43° |
| 2026-05-04 11:59 | -34.77618 | 149.33366 | 31319 ft | 473 kts | 43° |
| 2026-05-04 11:59 | -34.75591 | 149.36524 | 31053 ft | 473 kts | 43° |
| 2026-05-04 11:59 | -34.73680 | 149.39820 | 30817 ft | 482 kts | 50° |
| 2026-05-04 12:00 | -34.72058 | 149.43402 | 30589 ft | 484 kts | 54° |
| 2026-05-04 12:00 | -34.70520 | 149.46967 | 30337 ft | 481 kts | 54° |
| 2026-05-04 12:00 | -34.68965 | 149.50556 | 30084 ft | 479 kts | 53° |
| 2026-05-04 12:00 | -34.67414 | 149.54121 | 29806 ft | 476 kts | 53° |
| 2026-05-04 12:01 | -34.65867 | 149.57665 | 29532 ft | 474 kts | 53° |
| 2026-05-04 12:01 | -34.64324 | 149.61193 | 29225 ft | 471 kts | 53° |
| 2026-05-04 12:02 | -34.55232 | 149.81900 | 26486 ft | 455 kts | 53° |
| 2026-05-04 12:03 | -34.53749 | 149.85271 | 25912 ft | 450 kts | 53° |
| 2026-05-04 12:03 | -34.52283 | 149.88599 | 25341 ft | 445 kts | 53° |
| 2026-05-04 12:03 | -34.50828 | 149.91897 | 24783 ft | 440 kts | 53° |
| 2026-05-04 12:03 | -34.49386 | 149.95157 | 24206 ft | 437 kts | 53° |
| 2026-05-04 12:04 | -34.47956 | 149.98387 | 23607 ft | 434 kts | 53° |
| 2026-05-04 12:04 | -34.46630 | 150.01685 | 22774 ft | 439 kts | 58° |
| 2026-05-04 12:04 | -34.45403 | 150.05078 | 22019 ft | 438 kts | 59° |
| 2026-05-04 12:04 | -34.44209 | 150.08436 | 21524 ft | 431 kts | 59° |
| 2026-05-04 12:05 | -34.43045 | 150.11709 | 20967 ft | 426 kts | 59° |
| 2026-05-04 12:05 | -34.41874 | 150.14982 | 20405 ft | 422 kts | 59° |
| 2026-05-04 12:05 | -34.40711 | 150.18219 | 19830 ft | 417 kts | 59° |
| 2026-05-04 12:05 | -34.39559 | 150.21412 | 19293 ft | 412 kts | 59° |
| 2026-05-04 12:06 | -34.38417 | 150.24575 | 18714 ft | 408 kts | 59° |
| 2026-05-04 12:06 | -34.37288 | 150.27700 | 18153 ft | 404 kts | 59° |
| 2026-05-04 12:06 | -34.36170 | 150.30791 | 17613 ft | 398 kts | 59° |
| 2026-05-04 12:06 | -34.35069 | 150.33832 | 17018 ft | 393 kts | 59° |
| 2026-05-04 12:07 | -34.33976 | 150.36851 | 16488 ft | 388 kts | 59° |
| 2026-05-04 12:07 | -34.32897 | 150.39826 | 15973 ft | 385 kts | 59° |
| 2026-05-04 12:07 | -34.31825 | 150.42775 | 15438 ft | 381 kts | 59° |
| 2026-05-04 12:07 | -34.30762 | 150.45698 | 14922 ft | 378 kts | 59° |
| 2026-05-04 12:08 | -34.29707 | 150.48595 | 14401 ft | 374 kts | 60° |
| 2026-05-04 12:08 | -34.28663 | 150.51462 | 13888 ft | 371 kts | 60° |
| 2026-05-04 12:08 | -34.27625 | 150.54308 | 13339 ft | 368 kts | 60° |
| 2026-05-04 12:08 | -34.26601 | 150.57118 | 12835 ft | 363 kts | 60° |
| 2026-05-04 12:09 | -34.25587 | 150.59898 | 12337 ft | 359 kts | 60° |
| 2026-05-04 12:09 | -34.24585 | 150.62643 | 11839 ft | 355 kts | 60° |
| 2026-05-04 12:09 | -34.23607 | 150.65318 | 11349 ft | 351 kts | 60° |
| 2026-05-04 12:09 | -34.22623 | 150.68006 | 10858 ft | 348 kts | 60° |
| 2026-05-04 12:10 | -34.21650 | 150.70661 | 10421 ft | 343 kts | 60° |
| 2026-05-04 12:10 | -34.20704 | 150.73248 | 10283 ft | 329 kts | 60° |
| 2026-05-04 12:10 | -34.19802 | 150.75724 | 10141 ft | 315 kts | 60° |
| 2026-05-04 12:10 | -34.18934 | 150.78098 | 10005 ft | 303 kts | 60° |
| 2026-05-04 12:11 | -34.18095 | 150.80387 | 9862 ft | 292 kts | 60° |
| 2026-05-04 12:11 | -34.17291 | 150.82579 | 9741 ft | 279 kts | 60° |
| 2026-05-04 12:11 | -34.16521 | 150.84678 | 9635 ft | 267 kts | 59° |
| 2026-05-04 12:11 | -34.15783 | 150.86684 | 9537 ft | 256 kts | 59° |
| 2026-05-04 12:12 | -34.15071 | 150.88615 | 9328 ft | 249 kts | 59° |
| 2026-05-04 12:12 | -34.14365 | 150.90520 | 9011 ft | 248 kts | 59° |
| 2026-05-04 12:12 | -34.13659 | 150.92419 | 8676 ft | 248 kts | 59° |
| 2026-05-04 12:12 | -34.12956 | 150.94317 | 8372 ft | 247 kts | 59° |
| 2026-05-04 12:13 | -34.12259 | 150.96207 | 8047 ft | 247 kts | 59° |
| 2026-05-04 12:14 | -34.10957 | 151.09280 | 6043 ft | 251 kts | 157° |
| 2026-05-04 12:15 | -34.12610 | 151.09819 | 5953 ft | 241 kts | 180° |
| 2026-05-04 12:15 | -34.14235 | 151.09931 | 5838 ft | 228 kts | 183° |
| 2026-05-04 12:15 | -34.15785 | 151.10040 | 5694 ft | 220 kts | 180° |
| 2026-05-04 12:15 | -34.17278 | 151.10243 | 5434 ft | 218 kts | 177° |
| 2026-05-04 12:16 | -34.18698 | 151.10885 | 5158 ft | 223 kts | 144° |
| 2026-05-04 12:16 | -34.19593 | 151.12345 | 4976 ft | 215 kts | 108° |
| 2026-05-04 12:16 | -34.19669 | 151.14079 | 4710 ft | 205 kts | 75° |
| 2026-05-04 12:16 | -34.19363 | 151.15733 | 4430 ft | 200 kts | 73° |
| 2026-05-04 12:17 | -34.19058 | 151.17351 | 4155 ft | 195 kts | 73° |
| 2026-05-04 12:17 | -34.18758 | 151.18938 | 3880 ft | 192 kts | 73° |
| 2026-05-04 12:17 | -34.18421 | 151.20485 | 3598 ft | 187 kts | 60° |
| 2026-05-04 12:17 | -34.17578 | 151.21553 | 3335 ft | 174 kts | 19° |
| 2026-05-04 12:18 | -34.16386 | 151.22071 | 3098 ft | 183 kts | 13° |
| 2026-05-04 12:18 | -34.15225 | 151.22520 | 3007 ft | 163 kts | 13° |
| 2026-05-04 12:18 | -34.14227 | 151.22927 | 3007 ft | 145 kts | 11° |
| 2026-05-04 12:18 | -34.13270 | 151.22850 | 3034 ft | 138 kts | 337° |
| 2026-05-04 12:19 | -34.12377 | 151.22447 | 3018 ft | 136 kts | 336° |
| 2026-05-04 12:19 | -34.11460 | 151.22105 | 3014 ft | 139 kts | 340° |
| 2026-05-04 12:19 | -34.10527 | 151.21827 | 3019 ft | 140 kts | 342° |
| 2026-05-04 12:19 | -34.09583 | 151.21574 | 3009 ft | 137 kts | 342° |
| 2026-05-04 12:20 | -34.08665 | 151.21330 | 2841 ft | 136 kts | 341° |
| 2026-05-04 12:20 | -34.07738 | 151.21082 | 2539 ft | 136 kts | 343° |
| 2026-05-04 12:20 | -34.06821 | 151.20840 | 2263 ft | 132 kts | 343° |
| 2026-05-04 12:20 | -34.05948 | 151.20609 | 2001 ft | 124 kts | 343° |
| 2026-05-04 12:21 | -34.05148 | 151.20397 | 1810 ft | 114 kts | 344° |
| 2026-05-04 12:21 | -34.04359 | 151.20186 | 1648 ft | 114 kts | 344° |
| 2026-05-04 12:21 | -34.03583 | 151.19980 | 1483 ft | 115 kts | 345° |
| 2026-05-04 12:21 | -34.02808 | 151.19775 | 1334 ft | 114 kts | 344° |
| 2026-05-04 12:22 | -34.02023 | 151.19566 | 1180 ft | 115 kts | 345° |
| 2026-05-04 12:22 | -34.01223 | 151.19355 | 1022 ft | 119 kts | 346° |
| 2026-05-04 12:22 | -34.00397 | 151.19134 | 855 ft | 124 kts | 346° |
| 2026-05-04 12:22 | -33.99555 | 151.18912 | 689 ft | 120 kts | 346° |
| 2026-05-04 12:23 | -33.98740 | 151.18697 | 531 ft | 121 kts | 347° |
| 2026-05-04 12:23 | -33.97883 | 151.18469 | 359 ft | 130 kts | 346° |
| 2026-05-04 12:23 | -33.97033 | 151.18241 | 166 ft | 126 kts | 344° |
| 2026-05-04 12:23 | -33.96192 | 151.18007 | 41 ft | 125 kts | 343° |
| 2026-05-04 12:24 | -33.95424 | 151.17803 | 22 ft | 85 kts | 348° |
| 2026-05-04 12:24 | -33.95046 | 151.17704 | 21 ft | 29 kts | 348° |
| 2026-05-04 12:24 | -33.94990 | 151.17690 | 23 ft | 6 kts | 348° |
| 2026-05-04 12:24 | -33.94899 | 151.17669 | 22 ft | 20 kts | 349° |
| 2026-05-04 12:25 | -33.94718 | 151.17644 | 23 ft | 32 kts | 355° |
| 2026-05-04 12:25 | -33.94514 | 151.17686 | 24 ft | 28 kts | 16° |
| 2026-05-04 12:25 | -33.94391 | 151.17736 | 24 ft | 13 kts | 19° |
| 2026-05-04 12:25 | -33.94253 | 151.17715 | 21 ft | 20 kts | 343° |
| 2026-05-04 12:26 | -33.94138 | 151.17676 | 22 ft | 18 kts | 345° |
| 2026-05-04 12:26 | -33.93969 | 151.17627 | 20 ft | 32 kts | 347° |
| 2026-05-04 12:26 | -33.93764 | 151.17575 | 18 ft | 29 kts | 349° |
| 2026-05-04 12:26 | -33.93568 | 151.17524 | 18 ft | 29 kts | 348° |
| 2026-05-04 12:27 | -33.93449 | 151.17505 | 20 ft | 21 kts | 3° |
| 2026-05-04 12:27 | -33.93368 | 151.17572 | 29 ft | 1 kts | 64° |
| 2026-05-04 12:27 | -33.93336 | 151.17601 | 30 ft | 8 kts | 3° |
| 2026-05-04 12:27 | -33.93256 | 151.17562 | 30 ft | 13 kts | 346° |
| 2026-05-04 12:28 | -33.93225 | 151.17554 | 30 ft | 0 kts | 348° |
| 2026-05-04 12:28 | -33.93218 | 151.17552 | 30 ft | 0 kts | 349° |
| 2026-05-04 12:29 | -33.93180 | 151.17546 | 30 ft | 13 kts | 349° |
| 2026-05-04 12:29 | -33.93117 | 151.17546 | 30 ft | 8 kts | 50° |
| 2026-05-04 12:29 | -33.93114 | 151.17572 | 30 ft | 12 kts | 89° |